Time;durP1;ratioP1;P1;durP2;ratioP2;P2;SDS_P1;SDS_P2;PMS_P1;PMS_P2;Temp;Humidity;BMP_temperature;BMP_pressure;BME280_temperature;BME280_humidity;BME280_pressure;Samples;Min_cycle;Max_cycle;Signal;HPM_P1;HPM_P2
2023/07/02 00:02:06;;;;;;;1.63;1.52;;;;;;;;;;4951038;28;20066;-73
2023/07/02 00:04:31;;;;;;;2.28;1.55;;;;;;;;;;4954965;28;20420;-73
2023/07/02 00:06:57;;;;;;;2.42;1.58;;;;;;;;;;4954291;28;20023;-74
2023/07/02 00:09:22;;;;;;;1.35;1.33;;;;;;;;;;4957866;28;20027;-74
2023/07/02 00:11:47;;;;;;;4.00;1.75;;;;;;;;;;4947580;28;20027;-73
2023/07/02 00:14:14;;;;;;;2.08;1.67;;;;;;;;;;4951582;28;20475;-74
2023/07/02 00:16:42;;;;;;;4.85;2.08;;;;;;;;;;4949268;28;20504;-73
2023/07/02 00:19:07;;;;;;;1.55;1.45;;;;;;;;;;4962152;28;20042;-74
2023/07/02 00:21:33;;;;;;;2.00;1.90;;;;;;;;;;4960957;28;20027;-74
2023/07/02 00:23:59;;;;;;;2.20;2.00;;;;;;;;;;4955996;28;20492;-74
2023/07/02 00:26:26;;;;;;;2.53;2.33;;;;;;;;;;4953655;28;20029;-73
2023/07/02 00:28:54;;;;;;;2.17;1.98;;;;;;;;;;4959137;28;20022;-74
2023/07/02 00:31:20;;;;;;;2.35;2.03;;;;;;;;;;4963046;28;20031;-73
2023/07/02 00:33:45;;;;;;;1.55;1.45;;;;;;;;;;4957578;28;20395;-73
2023/07/02 00:36:14;;;;;;;2.95;2.28;;;;;;;;;;4952883;28;20036;-73
2023/07/02 00:38:49;;;;;;;1.00;1.00;;;;;;;;;;4953660;28;20026;-73
2023/07/02 00:41:15;;;;;;;1.58;1.40;;;;;;;;;;4960217;28;20106;-73
2023/07/02 00:43:43;;;;;;;1.65;1.55;;;;;;;;;;4955986;28;20110;-73
2023/07/02 00:46:17;;;;;;;2.20;2.10;;;;;;;;;;4952543;28;20039;-73
2023/07/02 00:48:45;;;;;;;1.00;1.00;;;;;;;;;;4950298;28;20022;-73
2023/07/02 00:51:13;;;;;;;1.52;1.42;;;;;;;;;;4961232;28;20019;-73
2023/07/02 00:53:38;;;;;;;1.73;1.42;;;;;;;;;;4960932;28;20050;-73
2023/07/02 00:56:04;;;;;;;0.88;0.88;;;;;;;;;;4957110;28;20067;-74
2023/07/02 00:58:29;;;;;;;1.60;1.50;;;;;;;;;;4955441;28;20042;-74
2023/07/02 01:00:56;;;;;;;2.20;1.67;;;;;;;;;;4954888;28;20035;-73
2023/07/02 01:03:22;;;;;;;3.60;2.20;;;;;;;;;;4962775;28;20286;-73
2023/07/02 01:05:47;;;;;;;2.97;2.67;;;;;;;;;;4956787;28;20034;-74
2023/07/02 01:08:13;;;;;;;1.55;1.45;;;;;;;;;;4951993;28;20125;-74
2023/07/02 01:10:38;;;;;;;3.78;3.40;;;;;;;;;;4950218;28;20015;-73
2023/07/02 01:13:14;;;;;;;2.35;1.90;;;;;;;;;;4948390;28;20019;-74
2023/07/02 01:15:40;;;;;;;2.03;1.83;;;;;;;;;;4947942;28;20038;-73
2023/07/02 01:18:07;;;;;;;4.97;3.80;;;;;;;;;;4947350;28;20020;-73
2023/07/02 01:20:34;;;;;;;1.60;1.50;;;;;;;;;;4951053;28;20102;-74
2023/07/02 01:23:03;;;;;;;3.42;3.13;;;;;;;;;;4952096;28;20295;-74
2023/07/02 01:25:29;;;;;;;2.72;2.47;;;;;;;;;;4958135;28;20496;-74
2023/07/02 01:27:55;;;;;;;2.58;1.90;;;;;;;;;;4951867;28;20102;-73
2023/07/02 01:30:21;;;;;;;1.88;1.48;;;;;;;;;;4948826;28;20026;-74
2023/07/02 01:32:46;;;;;;;4.50;2.75;;;;;;;;;;4948508;28;20047;-74
2023/07/02 01:35:11;;;;;;;4.80;3.42;;;;;;;;;;4958029;28;20031;-73
2023/07/02 01:37:37;;;;;;;2.60;2.15;;;;;;;;;;4955974;28;20496;-73
2023/07/02 01:40:06;;;;;;;1.90;1.80;;;;;;;;;;4949445;28;20082;-72
2023/07/02 01:42:32;;;;;;;1.58;1.48;;;;;;;;;;4952427;28;20106;-72
2023/07/02 01:44:58;;;;;;;2.22;2.05;;;;;;;;;;4947088;28;20033;-72
2023/07/02 01:47:23;;;;;;;4.55;4.15;;;;;;;;;;4962192;28;20022;-72
2023/07/02 01:49:50;;;;;;;3.53;3.15;;;;;;;;;;4954180;28;20027;-73
2023/07/02 01:52:16;;;;;;;2.38;2.17;;;;;;;;;;4950374;28;20083;-73
2023/07/02 01:54:42;;;;;;;2.53;1.75;;;;;;;;;;4956569;28;20228;-73
2023/07/02 01:57:08;;;;;;;3.67;3.15;;;;;;;;;;4958358;28;20027;-73
2023/07/02 01:59:33;;;;;;;3.90;3.60;;;;;;;;;;4953051;28;20547;-73
2023/07/02 02:01:59;;;;;;;2.00;1.90;;;;;;;;;;4948634;28;20027;-72
2023/07/02 02:04:24;;;;;;;4.32;3.92;;;;;;;;;;4952797;28;20023;-72
2023/07/02 02:06:50;;;;;;;6.03;3.97;;;;;;;;;;4951759;28;20365;-73
2023/07/02 02:09:15;;;;;;;6.07;5.47;;;;;;;;;;4959941;28;20373;-72
2023/07/02 02:11:44;;;;;;;5.15;4.65;;;;;;;;;;4956340;28;20031;-72
2023/07/02 02:14:09;;;;;;;5.30;4.78;;;;;;;;;;4957898;28;20031;-73
2023/07/02 02:16:35;;;;;;;5.57;5.07;;;;;;;;;;4958539;28;20031;-73
2023/07/02 02:19:00;;;;;;;5.90;5.30;;;;;;;;;;4952546;28;20018;-73
2023/07/02 02:21:26;;;;;;;6.65;6.00;;;;;;;;;;4957142;28;20476;-72
2023/07/02 02:23:51;;;;;;;7.05;5.93;;;;;;;;;;4951764;28;20480;-73
2023/07/02 02:26:17;;;;;;;4.50;4.05;;;;;;;;;;4948075;28;20033;-73
2023/07/02 02:28:42;;;;;;;6.18;5.03;;;;;;;;;;4951364;28;20039;-73
2023/07/02 02:31:08;;;;;;;6.97;6.28;;;;;;;;;;4951793;28;20445;-73
2023/07/02 02:33:35;;;;;;;4.63;3.75;;;;;;;;;;4956674;28;20125;-73
2023/07/02 02:36:03;;;;;;;4.32;3.72;;;;;;;;;;4953534;28;20023;-73
2023/07/02 02:38:29;;;;;;;4.80;3.78;;;;;;;;;;4947013;28;20047;-73
2023/07/02 02:40:54;;;;;;;2.33;2.17;;;;;;;;;;4955676;28;20062;-73
2023/07/02 02:43:20;;;;;;;2.83;2.63;;;;;;;;;;4958314;28;20046;-73
2023/07/02 02:45:46;;;;;;;8.02;6.18;;;;;;;;;;4950962;28;20439;-73
2023/07/02 02:48:11;;;;;;;2.75;2.55;;;;;;;;;;4961395;28;20030;-73
2023/07/02 02:50:41;;;;;;;3.95;3.55;;;;;;;;;;4954344;28;20066;-74
2023/07/02 02:53:07;;;;;;;4.32;3.90;;;;;;;;;;4961359;28;20028;-73
2023/07/02 02:55:32;;;;;;;4.85;4.15;;;;;;;;;;4958587;28;20027;-73
2023/07/02 02:57:58;;;;;;;3.88;3.55;;;;;;;;;;4945592;28;20503;-74
2023/07/02 03:00:23;;;;;;;5.57;5.05;;;;;;;;;;4953970;28;20069;-74
2023/07/02 03:02:48;;;;;;;4.00;3.70;;;;;;;;;;4950350;28;20482;-74
2023/07/02 03:05:16;;;;;;;5.70;4.72;;;;;;;;;;4958016;28;20027;-74
2023/07/02 03:07:41;;;;;;;6.55;5.75;;;;;;;;;;4949633;28;20113;-73
2023/07/02 03:10:07;;;;;;;2.97;2.60;;;;;;;;;;4950388;28;20139;-73
2023/07/02 03:12:33;;;;;;;6.60;6.00;;;;;;;;;;4947417;28;20075;-73
2023/07/02 03:14:58;;;;;;;7.95;4.72;;;;;;;;;;4947120;28;20059;-73
2023/07/02 03:17:24;;;;;;;4.30;3.90;;;;;;;;;;4953154;28;20114;-73
2023/07/02 03:19:50;;;;;;;4.90;4.40;;;;;;;;;;4950103;28;20037;-73
2023/07/02 03:22:16;;;;;;;2.78;2.58;;;;;;;;;;4956437;28;20026;-73
2023/07/02 03:24:41;;;;;;;7.97;6.00;;;;;;;;;;4952314;28;20284;-73
2023/07/02 03:27:07;;;;;;;7.43;6.32;;;;;;;;;;4955175;28;20028;-73
2023/07/02 03:29:37;;;;;;;5.07;2.90;;;;;;;;;;4953860;28;20133;-73
2023/07/02 03:32:03;;;;;;;3.45;3.15;;;;;;;;;;4951458;28;20384;-73
2023/07/02 03:34:29;;;;;;;8.35;5.93;;;;;;;;;;4953697;28;20495;-73
2023/07/02 03:36:54;;;;;;;4.57;3.75;;;;;;;;;;4959864;28;20019;-72
2023/07/02 03:39:20;;;;;;;5.00;4.50;;;;;;;;;;4950200;28;20103;-73
2023/07/02 03:41:45;;;;;;;3.30;3.03;;;;;;;;;;4952990;28;20105;-73
2023/07/02 03:44:10;;;;;;;5.30;4.60;;;;;;;;;;4953514;28;20102;-72
2023/07/02 03:46:36;;;;;;;6.55;5.80;;;;;;;;;;4954695;28;20026;-72
2023/07/02 03:49:04;;;;;;;4.10;3.55;;;;;;;;;;4959075;28;20118;-72
2023/07/02 03:51:33;;;;;;;5.97;5.20;;;;;;;;;;4955417;28;20081;-72
2023/07/02 03:53:58;;;;;;;6.70;6.00;;;;;;;;;;4955124;28;20028;-72
2023/07/02 03:56:24;;;;;;;6.65;5.43;;;;;;;;;;4946821;28;20023;-72
2023/07/02 03:58:50;;;;;;;2.95;2.75;;;;;;;;;;4958912;28;20436;-72
2023/07/02 04:01:16;;;;;;;6.88;5.53;;;;;;;;;;4949205;28;20028;-72
2023/07/02 04:03:48;;;;;;;5.78;5.03;;;;;;;;;;4948455;28;20055;-72
2023/07/02 04:06:14;;;;;;;4.50;4.05;;;;;;;;;;4953974;28;20026;-72
2023/07/02 04:08:39;;;;;;;3.90;3.45;;;;;;;;;;4948282;28;20098;-72
2023/07/02 04:11:05;;;;;;;5.60;4.22;;;;;;;;;;4946140;28;20109;-73
2023/07/02 04:13:30;;;;;;;5.85;4.55;;;;;;;;;;4952300;28;20074;-73
2023/07/02 04:15:55;;;;;;;4.13;3.72;;;;;;;;;;4948718;28;20498;-73
2023/07/02 04:18:21;;;;;;;2.85;2.63;;;;;;;;;;4950629;28;20025;-72
2023/07/02 04:20:46;;;;;;;3.50;3.20;;;;;;;;;;4958314;28;20097;-72
2023/07/02 04:23:11;;;;;;;4.13;3.83;;;;;;;;;;4951420;28;20434;-72
2023/07/02 04:25:37;;;;;;;3.75;3.45;;;;;;;;;;4946778;28;20111;-73
2023/07/02 04:28:02;;;;;;;5.97;4.28;;;;;;;;;;4943012;28;20445;-72
2023/07/02 04:30:28;;;;;;;5.53;3.58;;;;;;;;;;4947124;28;20039;-72
2023/07/02 04:32:53;;;;;;;2.95;2.75;;;;;;;;;;4943390;28;20085;-72
2023/07/02 04:35:19;;;;;;;3.83;3.53;;;;;;;;;;4945409;28;20664;-73
2023/07/02 04:37:44;;;;;;;3.45;3.00;;;;;;;;;;4942303;28;20038;-73
2023/07/02 04:40:10;;;;;;;4.90;3.92;;;;;;;;;;4941486;28;20024;-73
2023/07/02 04:42:39;;;;;;;2.53;2.33;;;;;;;;;;4947183;28;20391;-72
2023/07/02 04:45:06;;;;;;;6.40;4.07;;;;;;;;;;4934029;28;20050;-73
2023/07/02 04:47:32;;;;;;;2.83;2.63;;;;;;;;;;4946874;28;20428;-72
2023/07/02 04:49:58;;;;;;;3.50;3.20;;;;;;;;;;4944645;28;20535;-72
2023/07/02 04:52:24;;;;;;;3.22;3.03;;;;;;;;;;4944734;28;20588;-72
2023/07/02 04:54:49;;;;;;;5.65;3.05;;;;;;;;;;4952382;28;20029;-73
2023/07/02 04:57:15;;;;;;;3.30;3.00;;;;;;;;;;4951066;28;20690;-73
2023/07/02 04:59:44;;;;;;;3.08;2.42;;;;;;;;;;4949601;28;20030;-73
2023/07/02 05:02:10;;;;;;;5.55;3.20;;;;;;;;;;4947496;28;20039;-73
2023/07/02 05:04:37;;;;;;;4.93;2.92;;;;;;;;;;4948173;28;20048;-72
2023/07/02 05:07:03;;;;;;;3.03;2.83;;;;;;;;;;4946790;28;20497;-72
2023/07/02 05:09:28;;;;;;;3.65;2.65;;;;;;;;;;4949935;28;20514;-72
2023/07/02 05:11:54;;;;;;;2.50;2.22;;;;;;;;;;4942618;28;20105;-72
2023/07/02 05:14:19;;;;;;;4.82;2.60;;;;;;;;;;4947621;28;20044;-72
2023/07/02 05:16:44;;;;;;;2.25;2.13;;;;;;;;;;4945899;28;20019;-73
2023/07/02 05:19:10;;;;;;;3.65;2.78;;;;;;;;;;4950680;28;20828;-73
2023/07/02 05:21:35;;;;;;;2.90;2.70;;;;;;;;;;4949698;28;20031;-73
2023/07/02 05:24:01;;;;;;;4.28;3.03;;;;;;;;;;4949210;28;20509;-73
2023/07/02 05:26:27;;;;;;;2.95;2.67;;;;;;;;;;4954269;28;20104;-73
2023/07/02 05:28:52;;;;;;;2.00;1.80;;;;;;;;;;4948084;28;20115;-73
2023/07/02 05:31:18;;;;;;;2.63;2.33;;;;;;;;;;4949464;28;20058;-73
2023/07/02 05:33:43;;;;;;;3.88;2.90;;;;;;;;;;4948043;28;20029;-73
2023/07/02 05:36:08;;;;;;;3.53;2.75;;;;;;;;;;4946453;28;20488;-73
2023/07/02 05:38:34;;;;;;;3.17;2.88;;;;;;;;;;4947722;28;20058;-73
2023/07/02 05:40:59;;;;;;;2.65;2.13;;;;;;;;;;4947737;28;20035;-73
2023/07/02 05:43:25;;;;;;;3.35;3.05;;;;;;;;;;4951954;28;20087;-73
2023/07/02 05:45:52;;;;;;;4.07;2.60;;;;;;;;;;4946484;28;20058;-73
2023/07/02 05:48:18;;;;;;;3.42;2.75;;;;;;;;;;4949079;28;20022;-73
2023/07/02 05:50:43;;;;;;;3.35;3.00;;;;;;;;;;4950087;28;20019;-73
2023/07/02 05:53:09;;;;;;;2.70;2.50;;;;;;;;;;4945787;28;20555;-73
2023/07/02 05:55:35;;;;;;;4.57;3.38;;;;;;;;;;4952200;28;20031;-72
2023/07/02 05:58:02;;;;;;;3.40;2.42;;;;;;;;;;4949729;28;20034;-73
2023/07/02 06:00:28;;;;;;;3.38;3.08;;;;;;;;;;4947854;28;20026;-72
2023/07/02 06:02:53;;;;;;;3.35;2.40;;;;;;;;;;4947349;28;20106;-72
2023/07/02 06:05:19;;;;;;;2.90;2.70;;;;;;;;;;4950894;28;20038;-73
2023/07/02 06:07:44;;;;;;;3.40;3.10;;;;;;;;;;4941586;28;20523;-73
2023/07/02 06:10:10;;;;;;;3.17;2.97;;;;;;;;;;4943242;28;20022;-72
2023/07/02 06:12:35;;;;;;;3.38;3.08;;;;;;;;;;4939762;28;20050;-72
2023/07/02 06:15:00;;;;;;;3.78;3.17;;;;;;;;;;4947200;28;20027;-73
2023/07/02 06:17:26;;;;;;;3.35;2.97;;;;;;;;;;4944978;28;20047;-72
2023/07/02 06:19:51;;;;;;;3.50;3.20;;;;;;;;;;4946430;28;20881;-72
2023/07/02 06:22:17;;;;;;;4.10;3.58;;;;;;;;;;4940506;28;20058;-73
2023/07/02 06:24:42;;;;;;;3.65;3.15;;;;;;;;;;4945350;28;20399;-73
2023/07/02 06:27:08;;;;;;;3.88;3.50;;;;;;;;;;4942821;28;20106;-72
2023/07/02 06:29:33;;;;;;;3.75;3.15;;;;;;;;;;4939797;28;20384;-72
2023/07/02 06:31:59;;;;;;;3.42;3.08;;;;;;;;;;4943857;28;20492;-72
2023/07/02 06:34:25;;;;;;;3.70;3.33;;;;;;;;;;4944918;28;20058;-72
2023/07/02 06:36:50;;;;;;;3.50;3.20;;;;;;;;;;4949622;28;20778;-73
2023/07/02 06:39:15;;;;;;;2.22;2.03;;;;;;;;;;4944506;28;20036;-72
2023/07/02 06:41:41;;;;;;;4.72;3.53;;;;;;;;;;4943441;28;20109;-72
2023/07/02 06:44:06;;;;;;;3.50;3.20;;;;;;;;;;4940468;28;20035;-72
2023/07/02 06:46:32;;;;;;;3.15;2.42;;;;;;;;;;4942721;28;20027;-72
2023/07/02 06:48:57;;;;;;;3.90;3.50;;;;;;;;;;4952899;28;20043;-73
2023/07/02 06:51:25;;;;;;;4.32;3.50;;;;;;;;;;4947229;28;20559;-72
2023/07/02 06:53:50;;;;;;;4.20;3.80;;;;;;;;;;4941604;28;20111;-72
2023/07/02 06:56:15;;;;;;;3.58;3.28;;;;;;;;;;4942186;28;20158;-72
2023/07/02 06:58:44;;;;;;;4.68;3.97;;;;;;;;;;4951121;28;20114;-72
2023/07/02 07:01:09;;;;;;;3.28;2.80;;;;;;;;;;4956500;28;20038;-73
2023/07/02 07:03:35;;;;;;;4.63;4.18;;;;;;;;;;4954395;28;20365;-73
2023/07/02 07:06:01;;;;;;;2.47;2.15;;;;;;;;;;4947144;28;20031;-73
2023/07/02 07:08:26;;;;;;;3.63;2.70;;;;;;;;;;4947309;28;20035;-72
2023/07/02 07:10:52;;;;;;;4.97;4.05;;;;;;;;;;4948769;28;20057;-73
2023/07/02 07:13:17;;;;;;;5.55;4.50;;;;;;;;;;4949677;28;20023;-73
2023/07/02 07:15:43;;;;;;;6.18;4.13;;;;;;;;;;4943225;28;20036;-72
2023/07/02 07:18:09;;;;;;;3.33;3.03;;;;;;;;;;4939602;28;20032;-72
2023/07/02 07:20:34;;;;;;;5.18;4.63;;;;;;;;;;4949333;28;20050;-72
2023/07/02 07:23:02;;;;;;;6.65;5.07;;;;;;;;;;4944855;28;20027;-72
2023/07/02 07:25:27;;;;;;;3.97;3.67;;;;;;;;;;4945196;28;20143;-72
2023/07/02 07:27:53;;;;;;;3.92;3.55;;;;;;;;;;4939547;28;20102;-72
2023/07/02 07:30:22;;;;;;;7.28;4.90;;;;;;;;;;4946831;28;20114;-72
2023/07/02 07:32:54;;;;;;;5.50;4.53;;;;;;;;;;4945203;28;20027;-72
2023/07/02 07:35:22;;;;;;;5.75;4.43;;;;;;;;;;4943935;28;20037;-72
2023/07/02 07:37:48;;;;;;;3.88;3.58;;;;;;;;;;4946071;28;20119;-72
2023/07/02 07:40:14;;;;;;;2.60;2.40;;;;;;;;;;4957167;28;20038;-72
2023/07/02 07:42:43;;;;;;;4.10;3.53;;;;;;;;;;4950895;28;20026;-72
2023/07/02 07:45:10;;;;;;;6.07;4.28;;;;;;;;;;4945223;28;20058;-72
2023/07/02 07:47:36;;;;;;;7.05;4.30;;;;;;;;;;4951378;28;20051;-72
2023/07/02 07:50:01;;;;;;;5.40;3.80;;;;;;;;;;4945523;28;20058;-72
2023/07/02 07:52:27;;;;;;;4.07;3.00;;;;;;;;;;4950270;28;20090;-72
2023/07/02 07:54:53;;;;;;;7.35;5.30;;;;;;;;;;4955834;28;20595;-72
2023/07/02 07:57:18;;;;;;;8.32;5.28;;;;;;;;;;4954733;28;20027;-72
2023/07/02 07:59:43;;;;;;;4.50;3.70;;;;;;;;;;4950515;28;20038;-72
2023/07/02 08:02:09;;;;;;;6.53;3.80;;;;;;;;;;4947262;28;20093;-72
2023/07/02 08:04:34;;;;;;;3.85;3.13;;;;;;;;;;4953921;28;20028;-72
2023/07/02 08:07:00;;;;;;;6.53;4.55;;;;;;;;;;4939888;28;20240;-72
2023/07/02 08:09:25;;;;;;;4.70;3.85;;;;;;;;;;4944567;28;20395;-72
2023/07/02 08:11:51;;;;;;;4.45;3.35;;;;;;;;;;4939962;28;21317;-72
2023/07/02 08:14:20;;;;;;;7.50;4.95;;;;;;;;;;4946894;28;20042;-72
2023/07/02 08:16:45;;;;;;;4.05;3.58;;;;;;;;;;4953105;28;20031;-72
2023/07/02 08:19:10;;;;;;;9.57;5.68;;;;;;;;;;4943102;28;20496;-72
2023/07/02 08:21:36;;;;;;;9.25;5.53;;;;;;;;;;4949871;28;20030;-72
2023/07/02 08:24:02;;;;;;;5.10;3.58;;;;;;;;;;4945313;28;20039;-72
2023/07/02 08:26:28;;;;;;;3.40;3.10;;;;;;;;;;4950964;28;20026;-72
2023/07/02 08:28:54;;;;;;;4.32;3.67;;;;;;;;;;4948170;28;20089;-72
2023/07/02 08:31:19;;;;;;;8.73;5.47;;;;;;;;;;4941618;28;20139;-72
2023/07/02 08:33:44;;;;;;;7.85;4.68;;;;;;;;;;4950195;28;20291;-72
2023/07/02 08:36:10;;;;;;;4.40;3.22;;;;;;;;;;4947961;28;20142;-72
2023/07/02 08:38:35;;;;;;;5.82;4.70;;;;;;;;;;4958892;28;20104;-72
2023/07/02 08:41:01;;;;;;;8.30;5.35;;;;;;;;;;4947179;28;20029;-72
2023/07/02 08:43:27;;;;;;;10.00;5.38;;;;;;;;;;4950083;28;20031;-72
2023/07/02 08:45:53;;;;;;;12.68;5.25;;;;;;;;;;4942605;28;20032;-72
2023/07/02 08:48:22;;;;;;;11.02;6.05;;;;;;;;;;4943998;28;20110;-72
2023/07/02 08:50:48;;;;;;;3.85;3.20;;;;;;;;;;4951608;28;20027;-72
2023/07/02 08:53:14;;;;;;;7.15;3.70;;;;;;;;;;4952714;28;20023;-72
2023/07/02 08:55:40;;;;;;;9.43;5.78;;;;;;;;;;4948927;28;20543;-72
2023/07/02 08:58:05;;;;;;;7.82;4.65;;;;;;;;;;4943290;28;20027;-72
2023/07/02 09:00:35;;;;;;;6.88;4.43;;;;;;;;;;4947783;28;20105;-72
2023/07/02 09:03:11;;;;;;;5.55;3.75;;;;;;;;;;4951272;28;20020;-72
2023/07/02 09:05:53;;;;;;;10.07;5.88;;;;;;;;;;4950350;28;20033;-72
2023/07/02 09:08:28;;;;;;;8.10;5.00;;;;;;;;;;4941735;28;20234;-73
2023/07/02 09:10:54;;;;;;;5.97;4.22;;;;;;;;;;4945489;28;20027;-73
2023/07/02 09:13:19;;;;;;;11.75;6.22;;;;;;;;;;4941890;28;20035;-72
2023/07/02 09:15:45;;;;;;;5.95;3.40;;;;;;;;;;4940064;28;20405;-73
2023/07/02 09:18:20;;;;;;;8.60;4.95;;;;;;;;;;4954232;28;20053;-73
2023/07/02 09:20:46;;;;;;;5.57;4.03;;;;;;;;;;4954911;28;20434;-72
2023/07/02 09:23:12;;;;;;;8.70;5.10;;;;;;;;;;4951899;28;20063;-72
2023/07/02 09:25:39;;;;;;;9.65;5.50;;;;;;;;;;4956005;28;20186;-72
2023/07/02 09:28:22;;;;;;;7.55;4.80;;;;;;;;;;4946876;28;20692;-72
2023/07/02 09:30:56;;;;;;;8.20;4.10;;;;;;;;;;4948379;28;20038;-72
2023/07/02 09:33:27;;;;;;;10.13;5.57;;;;;;;;;;4958284;28;20025;-73
2023/07/02 09:35:53;;;;;;;8.38;5.47;;;;;;;;;;4947710;28;20022;-72
2023/07/02 09:38:20;;;;;;;12.15;5.80;;;;;;;;;;4951955;28;20637;-73
2023/07/02 09:40:53;;;;;;;7.80;4.32;;;;;;;;;;4952923;28;20015;-73
2023/07/02 09:43:19;;;;;;;8.70;4.97;;;;;;;;;;4957397;28;20039;-73
2023/07/02 09:45:47;;;;;;;10.60;5.60;;;;;;;;;;4943339;28;20050;-76
2023/07/02 09:48:16;;;;;;;8.65;5.00;;;;;;;;;;4949193;28;20028;-73
2023/07/02 09:50:44;;;;;;;11.65;6.63;;;;;;;;;;4955929;28;20091;-74
2023/07/02 09:53:10;;;;;;;10.00;4.85;;;;;;;;;;4951151;28;20026;-74
2023/07/02 09:55:38;;;;;;;7.63;4.32;;;;;;;;;;4960083;28;20097;-74
2023/07/02 09:58:03;;;;;;;9.27;5.75;;;;;;;;;;4948967;28;20028;-75
2023/07/02 10:00:29;;;;;;;11.15;5.10;;;;;;;;;;4953647;28;20034;-73
2023/07/02 10:02:54;;;;;;;10.38;5.45;;;;;;;;;;4954395;28;20046;-74
2023/07/02 10:05:29;;;;;;;7.85;4.72;;;;;;;;;;4953377;28;20033;-74
2023/07/02 10:08:11;;;;;;;11.13;5.18;;;;;;;;;;4959753;28;20038;-74
2023/07/02 10:10:36;;;;;;;8.07;5.05;;;;;;;;;;4954677;28;20023;-74
2023/07/02 10:13:01;;;;;;;11.75;6.13;;;;;;;;;;4954160;28;20418;-73
2023/07/02 10:15:28;;;;;;;6.80;4.30;;;;;;;;;;4954135;28;20113;-73
2023/07/02 10:17:58;;;;;;;8.15;4.57;;;;;;;;;;4963517;28;20109;-73
2023/07/02 10:20:42;;;;;;;10.57;6.20;;;;;;;;;;4959294;28;20038;-74
2023/07/02 10:23:09;;;;;;;12.05;6.25;;;;;;;;;;4953827;28;20058;-74
2023/07/02 10:25:37;;;;;;;11.43;6.20;;;;;;;;;;4952981;28;20038;-73
2023/07/02 10:28:19;;;;;;;10.43;5.22;;;;;;;;;;4963154;28;20023;-74
2023/07/02 10:30:44;;;;;;;8.95;4.70;;;;;;;;;;4955468;28;20038;-74
2023/07/02 10:33:17;;;;;;;9.35;5.78;;;;;;;;;;4957878;28;20031;-74
2023/07/02 10:35:49;;;;;;;8.02;5.38;;;;;;;;;;4953820;28;20023;-74
2023/07/02 10:38:24;;;;;;;7.65;4.45;;;;;;;;;;4958680;28;20533;-75
2023/07/02 10:40:57;;;;;;;10.68;6.32;;;;;;;;;;4961160;28;20075;-75
2023/07/02 10:43:29;;;;;;;9.90;5.40;;;;;;;;;;4955991;28;20106;-75
2023/07/02 10:45:55;;;;;;;13.75;7.07;;;;;;;;;;4951302;28;20035;-75
2023/07/02 10:48:21;;;;;;;11.60;6.70;;;;;;;;;;4956687;28;20026;-75
2023/07/02 10:50:47;;;;;;;10.90;5.25;;;;;;;;;;4967296;28;20565;-75
2023/07/02 10:53:16;;;;;;;8.93;5.13;;;;;;;;;;4955578;28;20039;-75
2023/07/02 10:55:42;;;;;;;12.97;7.03;;;;;;;;;;4961384;28;20081;-75
2023/07/02 10:58:09;;;;;;;10.77;6.38;;;;;;;;;;4958183;28;20391;-75
2023/07/02 11:00:51;;;;;;;8.15;5.00;;;;;;;;;;4955832;28;20074;-75
2023/07/02 11:03:26;;;;;;;8.00;4.65;;;;;;;;;;4954787;28;20027;-75
2023/07/02 11:05:53;;;;;;;9.57;6.22;;;;;;;;;;4953423;28;20578;-75
2023/07/02 11:08:21;;;;;;;9.05;5.63;;;;;;;;;;4951606;28;20220;-75
2023/07/02 11:10:46;;;;;;;7.47;5.40;;;;;;;;;;4961099;28;20065;-75
2023/07/02 11:13:13;;;;;;;9.23;5.05;;;;;;;;;;4956555;28;20024;-75
2023/07/02 11:15:40;;;;;;;11.82;6.05;;;;;;;;;;4949732;28;20034;-75
2023/07/02 11:18:23;;;;;;;9.68;6.05;;;;;;;;;;4954647;28;20035;-75
2023/07/02 11:20:48;;;;;;;9.10;5.60;;;;;;;;;;4953392;28;20015;-75
2023/07/02 11:23:22;;;;;;;12.95;7.75;;;;;;;;;;4965357;28;20026;-73
2023/07/02 11:26:03;;;;;;;10.75;6.88;;;;;;;;;;4953514;28;20031;-73
2023/07/02 11:28:31;;;;;;;8.13;5.07;;;;;;;;;;4951282;28;20089;-75
2023/07/02 11:30:58;;;;;;;12.73;6.35;;;;;;;;;;4951612;28;20023;-75
2023/07/02 11:33:32;;;;;;;9.50;5.97;;;;;;;;;;4958182;28;20038;-75
2023/07/02 11:35:58;;;;;;;10.68;6.55;;;;;;;;;;4960906;28;20093;-75
2023/07/02 11:38:23;;;;;;;9.13;5.00;;;;;;;;;;4955941;28;20038;-75
2023/07/02 11:40:48;;;;;;;10.18;4.55;;;;;;;;;;4958736;28;20026;-75
2023/07/02 11:43:14;;;;;;;11.30;6.80;;;;;;;;;;4952390;28;20054;-75
2023/07/02 11:45:40;;;;;;;9.65;6.50;;;;;;;;;;4952388;28;20029;-75
2023/07/02 11:48:05;;;;;;;7.00;4.47;;;;;;;;;;4955399;28;20046;-75
2023/07/02 11:50:30;;;;;;;7.93;5.32;;;;;;;;;;4952137;28;20109;-75
2023/07/02 11:52:56;;;;;;;12.00;6.70;;;;;;;;;;4946164;28;20027;-75
2023/07/02 11:55:21;;;;;;;12.15;6.80;;;;;;;;;;4954999;28;20357;-75
2023/07/02 11:57:49;;;;;;;9.63;5.95;;;;;;;;;;4957166;28;20015;-75
2023/07/02 12:00:14;;;;;;;12.85;6.10;;;;;;;;;;4954799;28;20023;-75
2023/07/02 12:02:40;;;;;;;8.88;5.50;;;;;;;;;;4948988;28;20035;-75
2023/07/02 12:05:05;;;;;;;9.52;5.38;;;;;;;;;;4946372;28;20179;-75
2023/07/02 12:07:31;;;;;;;8.60;5.05;;;;;;;;;;4963703;28;20027;-75
2023/07/02 12:09:56;;;;;;;8.93;5.03;;;;;;;;;;4949342;28;20019;-75
2023/07/02 12:12:21;;;;;;;11.20;5.93;;;;;;;;;;4951175;28;20027;-75
2023/07/02 12:14:47;;;;;;;9.75;6.25;;;;;;;;;;4951653;28;20034;-75
2023/07/02 12:17:12;;;;;;;10.45;5.47;;;;;;;;;;4948048;28;20031;-75
2023/07/02 12:19:41;;;;;;;10.48;6.05;;;;;;;;;;4954170;28;20487;-75
2023/07/02 12:22:07;;;;;;;10.13;6.07;;;;;;;;;;4953011;28;20039;-75
2023/07/02 12:24:32;;;;;;;9.10;5.75;;;;;;;;;;4955496;28;20034;-75
2023/07/02 12:26:57;;;;;;;11.35;6.63;;;;;;;;;;4949220;28;20070;-75
2023/07/02 12:29:23;;;;;;;9.00;5.18;;;;;;;;;;4958107;28;20031;-75
2023/07/02 12:31:48;;;;;;;8.07;5.40;;;;;;;;;;4951640;28;20061;-75
2023/07/02 12:34:14;;;;;;;9.77;6.78;;;;;;;;;;4947443;28;20054;-75
2023/07/02 12:36:39;;;;;;;13.60;7.45;;;;;;;;;;4952195;28;20027;-75
2023/07/02 12:39:04;;;;;;;10.48;6.45;;;;;;;;;;4952135;28;20030;-75
2023/07/02 12:41:30;;;;;;;10.07;5.63;;;;;;;;;;4955267;28;20022;-75
2023/07/02 12:43:56;;;;;;;10.02;5.55;;;;;;;;;;4949362;28;20020;-75
2023/07/02 12:46:21;;;;;;;10.68;5.85;;;;;;;;;;4952784;28;20589;-75
2023/07/02 12:48:47;;;;;;;11.30;6.45;;;;;;;;;;4953338;28;20035;-75
2023/07/02 12:51:12;;;;;;;11.15;5.43;;;;;;;;;;4957103;28;20785;-75
2023/07/02 12:53:38;;;;;;;11.95;6.32;;;;;;;;;;4955208;28;20026;-75
2023/07/02 12:56:03;;;;;;;8.93;5.97;;;;;;;;;;4949707;28;20672;-75
2023/07/02 12:58:29;;;;;;;14.45;7.40;;;;;;;;;;4953258;28;20018;-75
2023/07/02 13:00:55;;;;;;;15.52;8.35;;;;;;;;;;4946603;28;20035;-75
2023/07/02 13:03:22;;;;;;;12.02;7.07;;;;;;;;;;4957911;28;20571;-75
2023/07/02 13:05:48;;;;;;;16.05;7.65;;;;;;;;;;4953307;28;20412;-75
2023/07/02 13:08:13;;;;;;;16.05;7.20;;;;;;;;;;4949361;28;20497;-75
2023/07/02 13:10:39;;;;;;;13.45;8.00;;;;;;;;;;4957687;28;20103;-76
2023/07/02 13:13:04;;;;;;;14.43;8.18;;;;;;;;;;4959137;28;20061;-75
2023/07/02 13:15:30;;;;;;;15.57;8.13;;;;;;;;;;4950081;28;20102;-75
2023/07/02 13:17:55;;;;;;;16.60;8.05;;;;;;;;;;4950081;28;20033;-75
2023/07/02 13:20:20;;;;;;;13.85;7.15;;;;;;;;;;4954335;28;20062;-75
2023/07/02 13:22:46;;;;;;;12.93;8.00;;;;;;;;;;4957092;28;20436;-75
2023/07/02 13:25:11;;;;;;;15.68;7.80;;;;;;;;;;4955758;28;20028;-75
2023/07/02 13:27:37;;;;;;;14.95;8.50;;;;;;;;;;4954052;28;20027;-75
2023/07/02 13:30:03;;;;;;;15.10;8.30;;;;;;;;;;4946309;28;20023;-75
2023/07/02 13:32:28;;;;;;;9.30;6.45;;;;;;;;;;4945608;28;20130;-75
2023/07/02 13:34:53;;;;;;;13.57;8.07;;;;;;;;;;4962544;28;20095;-75
2023/07/02 13:37:19;;;;;;;12.05;7.78;;;;;;;;;;4952807;28;20377;-75
2023/07/02 13:39:48;;;;;;;13.38;7.32;;;;;;;;;;4952398;28;20030;-75
2023/07/02 13:42:14;;;;;;;13.30;7.30;;;;;;;;;;4952032;28;20035;-75
2023/07/02 13:44:40;;;;;;;14.40;7.65;;;;;;;;;;4954169;28;20031;-75
2023/07/02 13:47:06;;;;;;;9.07;5.85;;;;;;;;;;4954328;28;20035;-75
2023/07/02 13:49:32;;;;;;;11.23;6.50;;;;;;;;;;4956687;28;20102;-75
2023/07/02 13:51:58;;;;;;;13.18;7.07;;;;;;;;;;4955647;28;20082;-75
2023/07/02 13:54:23;;;;;;;12.90;8.30;;;;;;;;;;4949701;28;20121;-75
2023/07/02 13:56:49;;;;;;;12.90;7.43;;;;;;;;;;4952906;28;20019;-75
2023/07/02 13:59:16;;;;;;;14.13;8.60;;;;;;;;;;4950166;28;20027;-75
2023/07/02 14:01:42;;;;;;;11.55;7.35;;;;;;;;;;4955076;28;20035;-76
2023/07/02 14:04:07;;;;;;;14.77;8.68;;;;;;;;;;4948868;28;20047;-75
2023/07/02 14:06:33;;;;;;;12.05;7.75;;;;;;;;;;4953411;28;20047;-74
2023/07/02 14:08:58;;;;;;;13.77;7.30;;;;;;;;;;4960169;28;20275;-75
2023/07/02 14:11:25;;;;;;;12.75;7.28;;;;;;;;;;4953517;28;20113;-75
2023/07/02 14:13:50;;;;;;;10.45;6.70;;;;;;;;;;4951272;28;20023;-75
2023/07/02 14:16:16;;;;;;;7.75;5.22;;;;;;;;;;4947732;28;20031;-75
2023/07/02 14:18:41;;;;;;;13.25;8.10;;;;;;;;;;4962655;28;20600;-76
2023/07/02 14:21:07;;;;;;;10.25;5.65;;;;;;;;;;4953387;28;20019;-75
2023/07/02 14:23:32;;;;;;;12.70;7.63;;;;;;;;;;4953813;28;20031;-75
2023/07/02 14:25:58;;;;;;;13.30;8.10;;;;;;;;;;4951123;28;20031;-76
2023/07/02 14:28:25;;;;;;;11.95;6.85;;;;;;;;;;4955612;28;20033;-75
2023/07/02 14:30:57;;;;;;;14.30;8.30;;;;;;;;;;4960216;28;20025;-75
2023/07/02 14:33:22;;;;;;;13.23;6.80;;;;;;;;;;4954705;28;20035;-75
2023/07/02 14:35:47;;;;;;;9.23;5.72;;;;;;;;;;4954041;28;20383;-75
2023/07/02 14:38:13;;;;;;;16.60;8.23;;;;;;;;;;4953635;28;20025;-75